sensor_id;sensor_type;location;lat;lon;timestamp;temperature;humidity
30851;DHT22;17567;48.382;9.102;2023-05-10T00:02:30;12.90;99.90
30851;DHT22;17567;48.382;9.102;2023-05-10T00:07:31;12.80;99.90
30851;DHT22;17567;48.382;9.102;2023-05-10T00:12:32;12.80;99.90
30851;DHT22;17567;48.382;9.102;2023-05-10T00:17:32;12.80;99.90
30851;DHT22;17567;48.382;9.102;2023-05-10T00:22:33;12.60;99.90
30851;DHT22;17567;48.382;9.102;2023-05-10T00:27:34;12.60;99.90
30851;DHT22;17567;48.382;9.102;2023-05-10T00:32:34;12.60;99.90
30851;DHT22;17567;48.382;9.102;2023-05-10T00:37:35;12.60;99.90
30851;DHT22;17567;48.382;9.102;2023-05-10T00:42:36;12.60;99.90
30851;DHT22;17567;48.382;9.102;2023-05-10T00:47:37;12.40;99.90
30851;DHT22;17567;48.382;9.102;2023-05-10T00:52:38;12.50;99.90
30851;DHT22;17567;48.382;9.102;2023-05-10T00:57:39;12.60;99.90
30851;DHT22;17567;48.382;9.102;2023-05-10T01:02:40;12.50;99.90
30851;DHT22;17567;48.382;9.102;2023-05-10T01:07:41;12.40;99.90
30851;DHT22;17567;48.382;9.102;2023-05-10T01:12:44;12.30;99.90
30851;DHT22;17567;48.382;9.102;2023-05-10T01:17:51;12.20;99.90
30851;DHT22;17567;48.382;9.102;2023-05-10T01:29:11;12.10;99.90
30851;DHT22;17567;48.382;9.102;2023-05-10T01:40:08;12.10;99.90
30851;DHT22;17567;48.382;9.102;2023-05-10T01:45:58;12.10;99.90
30851;DHT22;17567;48.382;9.102;2023-05-10T01:50:51;12.20;99.90
30851;DHT22;17567;48.382;9.102;2023-05-10T01:55:53;12.00;99.90
30851;DHT22;17567;48.382;9.102;2023-05-10T02:00:56;11.90;99.90
30851;DHT22;17567;48.382;9.102;2023-05-10T02:05:59;11.80;99.90
30851;DHT22;17567;48.382;9.102;2023-05-10T02:11:00;11.80;99.90
30851;DHT22;17567;48.382;9.102;2023-05-10T02:16:03;11.80;99.90
30851;DHT22;17567;48.382;9.102;2023-05-10T02:21:05;11.70;99.90
30851;DHT22;17567;48.382;9.102;2023-05-10T02:26:08;11.70;99.90
30851;DHT22;17567;48.382;9.102;2023-05-10T02:31:09;11.60;99.90
30851;DHT22;17567;48.382;9.102;2023-05-10T02:36:12;11.50;99.90
30851;DHT22;17567;48.382;9.102;2023-05-10T02:41:13;11.50;99.90
30851;DHT22;17567;48.382;9.102;2023-05-10T02:46:14;11.50;99.90
30851;DHT22;17567;48.382;9.102;2023-05-10T02:51:16;11.50;99.90
30851;DHT22;17567;48.382;9.102;2023-05-10T02:56:28;11.50;99.90
30851;DHT22;17567;48.382;9.102;2023-05-10T03:01:32;11.50;99.90
30851;DHT22;17567;48.382;9.102;2023-05-10T03:06:33;11.50;99.90
30851;DHT22;17567;48.382;9.102;2023-05-10T03:17:00;11.40;99.90
30851;DHT22;17567;48.382;9.102;2023-05-10T03:22:08;11.50;99.90
30851;DHT22;17567;48.382;9.102;2023-05-10T03:27:09;11.50;99.90
30851;DHT22;17567;48.382;9.102;2023-05-10T03:32:11;11.40;99.90
30851;DHT22;17567;48.382;9.102;2023-05-10T03:37:14;11.30;99.90
30851;DHT22;17567;48.382;9.102;2023-05-10T03:42:15;11.30;99.90
30851;DHT22;17567;48.382;9.102;2023-05-10T03:47:18;11.30;99.90
30851;DHT22;17567;48.382;9.102;2023-05-10T03:52:18;11.40;99.90
30851;DHT22;17567;48.382;9.102;2023-05-10T03:57:19;11.40;99.90
30851;DHT22;17567;48.382;9.102;2023-05-10T04:02:22;11.40;99.90
30851;DHT22;17567;48.382;9.102;2023-05-10T04:07:23;11.30;99.90
30851;DHT22;17567;48.382;9.102;2023-05-10T04:12:24;11.30;99.90
30851;DHT22;17567;48.382;9.102;2023-05-10T04:17:25;11.30;99.90
30851;DHT22;17567;48.382;9.102;2023-05-10T04:22:25;11.30;99.90
30851;DHT22;17567;48.382;9.102;2023-05-10T04:27:29;11.20;99.90
30851;DHT22;17567;48.382;9.102;2023-05-10T04:32:30;11.30;99.90
30851;DHT22;17567;48.382;9.102;2023-05-10T04:37:31;11.30;99.90
30851;DHT22;17567;48.382;9.102;2023-05-10T04:42:32;11.30;99.90
30851;DHT22;17567;48.382;9.102;2023-05-10T04:47:33;11.30;99.90
30851;DHT22;17567;48.382;9.102;2023-05-10T04:52:33;11.20;99.90
30851;DHT22;17567;48.382;9.102;2023-05-10T04:57:34;11.30;99.90
30851;DHT22;17567;48.382;9.102;2023-05-10T05:02:35;11.30;99.90
30851;DHT22;17567;48.382;9.102;2023-05-10T05:07:36;11.40;99.90
30851;DHT22;17567;48.382;9.102;2023-05-10T05:12:36;11.40;99.90
30851;DHT22;17567;48.382;9.102;2023-05-10T05:17:37;11.50;99.90
30851;DHT22;17567;48.382;9.102;2023-05-10T05:22:38;11.50;99.90
30851;DHT22;17567;48.382;9.102;2023-05-10T05:27:39;11.60;99.90
30851;DHT22;17567;48.382;9.102;2023-05-10T05:32:39;11.60;99.90
30851;DHT22;17567;48.382;9.102;2023-05-10T05:37:40;11.80;99.90
30851;DHT22;17567;48.382;9.102;2023-05-10T05:42:41;11.60;99.90
30851;DHT22;17567;48.382;9.102;2023-05-10T05:47:42;11.70;99.90
30851;DHT22;17567;48.382;9.102;2023-05-10T05:52:43;11.60;99.90
30851;DHT22;17567;48.382;9.102;2023-05-10T05:57:43;11.60;99.90
30851;DHT22;17567;48.382;9.102;2023-05-10T06:02:44;11.70;99.90
30851;DHT22;17567;48.382;9.102;2023-05-10T06:07:45;11.70;99.90
30851;DHT22;17567;48.382;9.102;2023-05-10T06:12:46;11.70;99.90
30851;DHT22;17567;48.382;9.102;2023-05-10T06:17:47;11.80;99.90
30851;DHT22;17567;48.382;9.102;2023-05-10T06:22:49;11.80;99.90
30851;DHT22;17567;48.382;9.102;2023-05-10T06:27:50;11.70;99.90
30851;DHT22;17567;48.382;9.102;2023-05-10T06:32:51;11.80;99.90
30851;DHT22;17567;48.382;9.102;2023-05-10T06:37:52;11.90;99.90
30851;DHT22;17567;48.382;9.102;2023-05-10T06:42:52;12.00;99.90
30851;DHT22;17567;48.382;9.102;2023-05-10T06:47:53;12.10;99.90
30851;DHT22;17567;48.382;9.102;2023-05-10T06:52:54;12.20;99.90
30851;DHT22;17567;48.382;9.102;2023-05-10T06:57:56;12.20;99.90
30851;DHT22;17567;48.382;9.102;2023-05-10T07:02:56;12.10;99.90
30851;DHT22;17567;48.382;9.102;2023-05-10T07:07:57;12.30;99.90
30851;DHT22;17567;48.382;9.102;2023-05-10T07:13:00;12.20;99.90
30851;DHT22;17567;48.382;9.102;2023-05-10T07:18:01;12.20;99.90
30851;DHT22;17567;48.382;9.102;2023-05-10T07:23:02;12.10;99.90
30851;DHT22;17567;48.382;9.102;2023-05-10T07:28:03;12.20;99.90
30851;DHT22;17567;48.382;9.102;2023-05-10T07:33:07;12.20;99.90
30851;DHT22;17567;48.382;9.102;2023-05-10T07:38:15;12.10;99.90
30851;DHT22;17567;48.382;9.102;2023-05-10T07:43:43;12.00;99.90
30851;DHT22;17567;48.382;9.102;2023-05-10T07:48:49;12.10;99.90
30851;DHT22;17567;48.382;9.102;2023-05-10T07:53:50;12.10;99.90
30851;DHT22;17567;48.382;9.102;2023-05-10T07:58:51;12.10;99.90
30851;DHT22;17567;48.382;9.102;2023-05-10T08:03:52;12.10;99.90
30851;DHT22;17567;48.382;9.102;2023-05-10T08:08:53;12.00;99.90
30851;DHT22;17567;48.382;9.102;2023-05-10T08:13:54;12.20;99.90
30851;DHT22;17567;48.382;9.102;2023-05-10T08:18:55;12.40;99.90
30851;DHT22;17567;48.382;9.102;2023-05-10T08:23:55;12.50;99.90
30851;DHT22;17567;48.382;9.102;2023-05-10T08:33:57;13.10;99.90
30851;DHT22;17567;48.382;9.102;2023-05-10T08:38:58;13.00;99.90
30851;DHT22;17567;48.382;9.102;2023-05-10T08:43:59;13.10;99.90
30851;DHT22;17567;48.382;9.102;2023-05-10T08:49:02;13.10;99.90
30851;DHT22;17567;48.382;9.102;2023-05-10T08:54:04;13.20;99.90
30851;DHT22;17567;48.382;9.102;2023-05-10T08:59:06;13.30;99.90
30851;DHT22;17567;48.382;9.102;2023-05-10T09:04:06;13.10;99.90
30851;DHT22;17567;48.382;9.102;2023-05-10T09:09:07;13.20;99.90
30851;DHT22;17567;48.382;9.102;2023-05-10T09:14:08;13.20;99.90
30851;DHT22;17567;48.382;9.102;2023-05-10T09:24:12;13.30;99.90
30851;DHT22;17567;48.382;9.102;2023-05-10T09:29:13;13.50;99.90
30851;DHT22;17567;48.382;9.102;2023-05-10T09:34:28;13.40;99.90
30851;DHT22;17567;48.382;9.102;2023-05-10T09:39:31;13.40;99.90
30851;DHT22;17567;48.382;9.102;2023-05-10T09:44:33;13.50;99.90
30851;DHT22;17567;48.382;9.102;2023-05-10T09:49:34;13.30;99.90
30851;DHT22;17567;48.382;9.102;2023-05-10T09:54:35;13.20;99.90
30851;DHT22;17567;48.382;9.102;2023-05-10T09:59:42;13.10;99.90
30851;DHT22;17567;48.382;9.102;2023-05-10T10:04:43;13.30;99.90
30851;DHT22;17567;48.382;9.102;2023-05-10T10:09:44;13.30;99.90
30851;DHT22;17567;48.382;9.102;2023-05-10T10:14:46;13.50;99.90
30851;DHT22;17567;48.382;9.102;2023-05-10T10:19:48;13.70;99.90
30851;DHT22;17567;48.382;9.102;2023-05-10T10:24:50;13.90;99.90
30851;DHT22;17567;48.382;9.102;2023-05-10T10:30:13;13.90;99.90
30851;DHT22;17567;48.382;9.102;2023-05-10T10:35:17;13.90;99.90
30851;DHT22;17567;48.382;9.102;2023-05-10T10:40:32;14.20;99.90
30851;DHT22;17567;48.382;9.102;2023-05-10T10:45:32;14.40;99.90
30851;DHT22;17567;48.382;9.102;2023-05-10T10:50:43;14.50;99.90
30851;DHT22;17567;48.382;9.102;2023-05-10T10:55:48;14.30;99.90
30851;DHT22;17567;48.382;9.102;2023-05-10T11:00:49;14.40;99.90
30851;DHT22;17567;48.382;9.102;2023-05-10T11:05:50;14.40;99.90
30851;DHT22;17567;48.382;9.102;2023-05-10T11:21:15;14.50;99.90
30851;DHT22;17567;48.382;9.102;2023-05-10T11:26:16;14.50;99.90
30851;DHT22;17567;48.382;9.102;2023-05-10T11:31:18;14.30;99.90
30851;DHT22;17567;48.382;9.102;2023-05-10T11:36:21;13.80;99.90
30851;DHT22;17567;48.382;9.102;2023-05-10T11:41:23;13.80;99.90
30851;DHT22;17567;48.382;9.102;2023-05-10T11:46:26;13.40;99.90
30851;DHT22;17567;48.382;9.102;2023-05-10T11:51:27;13.20;99.90
30851;DHT22;17567;48.382;9.102;2023-05-10T11:56:28;13.30;99.90
30851;DHT22;17567;48.382;9.102;2023-05-10T12:01:29;13.30;99.90
30851;DHT22;17567;48.382;9.102;2023-05-10T12:06:31;13.30;99.90
30851;DHT22;17567;48.382;9.102;2023-05-10T12:11:37;13.50;99.90
30851;DHT22;17567;48.382;9.102;2023-05-10T12:16:38;13.00;99.90
30851;DHT22;17567;48.382;9.102;2023-05-10T12:26:41;13.40;99.90
30851;DHT22;17567;48.382;9.102;2023-05-10T12:31:56;13.50;99.90
30851;DHT22;17567;48.382;9.102;2023-05-10T12:36:57;13.50;99.90
30851;DHT22;17567;48.382;9.102;2023-05-10T12:41:58;13.60;99.90
30851;DHT22;17567;48.382;9.102;2023-05-10T12:46:59;13.60;99.90
30851;DHT22;17567;48.382;9.102;2023-05-10T12:51:59;13.70;99.90
30851;DHT22;17567;48.382;9.102;2023-05-10T12:57:02;13.70;99.90
30851;DHT22;17567;48.382;9.102;2023-05-10T13:02:03;13.50;99.90
30851;DHT22;17567;48.382;9.102;2023-05-10T13:07:04;13.70;99.90
30851;DHT22;17567;48.382;9.102;2023-05-10T13:12:05;13.90;99.90
30851;DHT22;17567;48.382;9.102;2023-05-10T13:17:05;13.90;99.90
30851;DHT22;17567;48.382;9.102;2023-05-10T13:22:06;14.00;99.90
30851;DHT22;17567;48.382;9.102;2023-05-10T13:27:06;14.20;99.90
30851;DHT22;17567;48.382;9.102;2023-05-10T13:32:07;14.10;99.90
30851;DHT22;17567;48.382;9.102;2023-05-10T13:47:13;14.30;99.90
30851;DHT22;17567;48.382;9.102;2023-05-10T13:52:14;14.60;99.90
30851;DHT22;17567;48.382;9.102;2023-05-10T13:57:15;14.50;99.90
30851;DHT22;17567;48.382;9.102;2023-05-10T14:17:23;14.70;99.90
30851;DHT22;17567;48.382;9.102;2023-05-10T14:22:23;14.60;99.90
30851;DHT22;17567;48.382;9.102;2023-05-10T14:27:24;14.50;99.90
30851;DHT22;17567;48.382;9.102;2023-05-10T14:32:24;14.50;99.90
30851;DHT22;17567;48.382;9.102;2023-05-10T14:37:27;14.70;99.90
30851;DHT22;17567;48.382;9.102;2023-05-10T14:42:27;14.60;99.90
30851;DHT22;17567;48.382;9.102;2023-05-10T14:47:28;14.60;99.90
30851;DHT22;17567;48.382;9.102;2023-05-10T14:52:29;14.70;99.90
30851;DHT22;17567;48.382;9.102;2023-05-10T14:57:30;14.70;99.90
30851;DHT22;17567;48.382;9.102;2023-05-10T15:02:30;14.80;99.90
30851;DHT22;17567;48.382;9.102;2023-05-10T15:07:31;14.80;99.90
30851;DHT22;17567;48.382;9.102;2023-05-10T15:12:32;14.90;99.90
30851;DHT22;17567;48.382;9.102;2023-05-10T15:17:33;14.70;99.90
30851;DHT22;17567;48.382;9.102;2023-05-10T15:22:34;14.60;99.90
30851;DHT22;17567;48.382;9.102;2023-05-10T15:27:35;14.50;99.90
30851;DHT22;17567;48.382;9.102;2023-05-10T15:37:40;14.50;99.90
30851;DHT22;17567;48.382;9.102;2023-05-10T15:42:40;14.50;99.90
30851;DHT22;17567;48.382;9.102;2023-05-10T15:47:41;14.20;99.90
30851;DHT22;17567;48.382;9.102;2023-05-10T15:57:44;14.50;99.90
30851;DHT22;17567;48.382;9.102;2023-05-10T16:02:45;14.30;99.90
30851;DHT22;17567;48.382;9.102;2023-05-10T16:07:45;14.10;99.90
30851;DHT22;17567;48.382;9.102;2023-05-10T16:12:46;13.90;99.90
30851;DHT22;17567;48.382;9.102;2023-05-10T16:17:47;14.00;99.90
30851;DHT22;17567;48.382;9.102;2023-05-10T16:22:48;13.90;99.90
30851;DHT22;17567;48.382;9.102;2023-05-10T16:27:48;14.00;99.90
30851;DHT22;17567;48.382;9.102;2023-05-10T16:32:50;14.00;99.90
30851;DHT22;17567;48.382;9.102;2023-05-10T16:37:51;13.80;99.90
30851;DHT22;17567;48.382;9.102;2023-05-10T16:42:52;13.80;99.90
30851;DHT22;17567;48.382;9.102;2023-05-10T16:52:56;13.90;99.90
30851;DHT22;17567;48.382;9.102;2023-05-10T16:57:57;14.00;99.90
30851;DHT22;17567;48.382;9.102;2023-05-10T17:03:00;14.00;99.90
30851;DHT22;17567;48.382;9.102;2023-05-10T17:08:00;13.60;99.90
30851;DHT22;17567;48.382;9.102;2023-05-10T17:13:01;13.50;99.90
30851;DHT22;17567;48.382;9.102;2023-05-10T17:18:03;13.50;99.90
30851;DHT22;17567;48.382;9.102;2023-05-10T17:23:04;13.20;99.90
30851;DHT22;17567;48.382;9.102;2023-05-10T17:28:04;13.10;99.90
30851;DHT22;17567;48.382;9.102;2023-05-10T17:33:05;13.00;99.90
30851;DHT22;17567;48.382;9.102;2023-05-10T17:38:05;12.90;99.90
30851;DHT22;17567;48.382;9.102;2023-05-10T17:43:06;12.80;99.90
30851;DHT22;17567;48.382;9.102;2023-05-10T17:48:07;12.80;99.90
30851;DHT22;17567;48.382;9.102;2023-05-10T17:53:08;12.80;99.90
30851;DHT22;17567;48.382;9.102;2023-05-10T17:58:10;12.80;99.90
30851;DHT22;17567;48.382;9.102;2023-05-10T18:03:11;12.70;99.90
30851;DHT22;17567;48.382;9.102;2023-05-10T18:08:11;12.60;99.90
30851;DHT22;17567;48.382;9.102;2023-05-10T18:13:12;12.70;99.90
30851;DHT22;17567;48.382;9.102;2023-05-10T18:18:13;12.60;99.90
30851;DHT22;17567;48.382;9.102;2023-05-10T18:23:13;12.50;99.90
30851;DHT22;17567;48.382;9.102;2023-05-10T18:28:14;12.50;99.90
30851;DHT22;17567;48.382;9.102;2023-05-10T18:33:15;12.40;99.90
30851;DHT22;17567;48.382;9.102;2023-05-10T18:38:16;12.40;99.90
30851;DHT22;17567;48.382;9.102;2023-05-10T18:43:16;12.50;99.90
30851;DHT22;17567;48.382;9.102;2023-05-10T18:48:17;12.40;99.90
30851;DHT22;17567;48.382;9.102;2023-05-10T18:53:18;12.30;99.90
30851;DHT22;17567;48.382;9.102;2023-05-10T18:58:18;12.30;99.90
30851;DHT22;17567;48.382;9.102;2023-05-10T19:03:20;12.30;99.90
30851;DHT22;17567;48.382;9.102;2023-05-10T19:08:22;12.30;99.90
30851;DHT22;17567;48.382;9.102;2023-05-10T19:13:22;12.20;99.90
30851;DHT22;17567;48.382;9.102;2023-05-10T19:18:24;12.20;99.90
30851;DHT22;17567;48.382;9.102;2023-05-10T19:23:24;12.20;99.90
30851;DHT22;17567;48.382;9.102;2023-05-10T19:28:25;12.10;99.90
30851;DHT22;17567;48.382;9.102;2023-05-10T19:33:26;12.00;99.90
30851;DHT22;17567;48.382;9.102;2023-05-10T19:38:27;11.80;99.90
30851;DHT22;17567;48.382;9.102;2023-05-10T19:43:29;11.60;99.90
30851;DHT22;17567;48.382;9.102;2023-05-10T19:48:30;11.70;99.90
30851;DHT22;17567;48.382;9.102;2023-05-10T19:53:31;11.70;99.90
30851;DHT22;17567;48.382;9.102;2023-05-10T19:58:32;11.60;99.90
30851;DHT22;17567;48.382;9.102;2023-05-10T20:03:34;11.40;99.90
30851;DHT22;17567;48.382;9.102;2023-05-10T20:08:35;11.40;99.90
30851;DHT22;17567;48.382;9.102;2023-05-10T20:13:35;11.30;99.90
30851;DHT22;17567;48.382;9.102;2023-05-10T20:18:36;11.30;99.90
30851;DHT22;17567;48.382;9.102;2023-05-10T20:23:37;11.20;99.90
30851;DHT22;17567;48.382;9.102;2023-05-10T20:28:38;11.20;99.90
30851;DHT22;17567;48.382;9.102;2023-05-10T20:33:38;11.20;99.90
30851;DHT22;17567;48.382;9.102;2023-05-10T20:38:39;11.20;99.90
30851;DHT22;17567;48.382;9.102;2023-05-10T20:43:40;11.10;99.90
30851;DHT22;17567;48.382;9.102;2023-05-10T20:48:40;11.00;99.90
30851;DHT22;17567;48.382;9.102;2023-05-10T20:53:41;10.90;99.90
30851;DHT22;17567;48.382;9.102;2023-05-10T20:58:41;10.90;99.90
30851;DHT22;17567;48.382;9.102;2023-05-10T21:03:42;10.70;99.90
30851;DHT22;17567;48.382;9.102;2023-05-10T21:08:42;10.70;99.90
30851;DHT22;17567;48.382;9.102;2023-05-10T21:13:43;10.70;99.90
30851;DHT22;17567;48.382;9.102;2023-05-10T21:18:44;10.70;99.90
30851;DHT22;17567;48.382;9.102;2023-05-10T21:23:47;10.60;99.90
30851;DHT22;17567;48.382;9.102;2023-05-10T21:28:48;10.60;99.90
30851;DHT22;17567;48.382;9.102;2023-05-10T21:33:48;10.40;99.90
30851;DHT22;17567;48.382;9.102;2023-05-10T21:38:49;10.30;99.90
30851;DHT22;17567;48.382;9.102;2023-05-10T21:43:50;10.30;99.90
30851;DHT22;17567;48.382;9.102;2023-05-10T21:48:50;10.30;99.90
30851;DHT22;17567;48.382;9.102;2023-05-10T21:53:51;10.30;99.90
30851;DHT22;17567;48.382;9.102;2023-05-10T21:58:52;10.20;99.90
30851;DHT22;17567;48.382;9.102;2023-05-10T22:03:52;10.10;99.90
30851;DHT22;17567;48.382;9.102;2023-05-10T22:08:53;10.10;99.90
30851;DHT22;17567;48.382;9.102;2023-05-10T22:13:54;10.00;99.90
30851;DHT22;17567;48.382;9.102;2023-05-10T22:18:54;9.90;99.90
30851;DHT22;17567;48.382;9.102;2023-05-10T22:23:55;9.90;99.90
30851;DHT22;17567;48.382;9.102;2023-05-10T22:28:55;9.80;99.90
30851;DHT22;17567;48.382;9.102;2023-05-10T22:33:56;9.80;99.90
30851;DHT22;17567;48.382;9.102;2023-05-10T22:38:57;9.80;99.90
30851;DHT22;17567;48.382;9.102;2023-05-10T22:43:58;9.70;99.90
30851;DHT22;17567;48.382;9.102;2023-05-10T22:48:58;9.60;99.90
30851;DHT22;17567;48.382;9.102;2023-05-10T22:53:59;9.60;99.90
30851;DHT22;17567;48.382;9.102;2023-05-10T22:59:00;9.60;99.90
30851;DHT22;17567;48.382;9.102;2023-05-10T23:04:00;9.50;99.90
30851;DHT22;17567;48.382;9.102;2023-05-10T23:09:01;9.50;99.90
30851;DHT22;17567;48.382;9.102;2023-05-10T23:14:02;9.50;99.90
30851;DHT22;17567;48.382;9.102;2023-05-10T23:19:02;9.40;99.90
30851;DHT22;17567;48.382;9.102;2023-05-10T23:24:03;9.40;99.90
30851;DHT22;17567;48.382;9.102;2023-05-10T23:29:04;9.30;99.90
30851;DHT22;17567;48.382;9.102;2023-05-10T23:34:04;9.30;99.90
30851;DHT22;17567;48.382;9.102;2023-05-10T23:39:05;9.30;99.90
30851;DHT22;17567;48.382;9.102;2023-05-10T23:44:07;9.40;99.90
30851;DHT22;17567;48.382;9.102;2023-05-10T23:49:08;9.30;99.90
30851;DHT22;17567;48.382;9.102;2023-05-10T23:54:08;9.30;99.90
30851;DHT22;17567;48.382;9.102;2023-05-10T23:59:09;9.30;99.90
